createdAt,value
2022-09-28T00:01:08.945Z,9.10
2022-09-28T00:03:37.073Z,9.13
2022-09-28T00:06:07.035Z,9.93
2022-09-28T00:08:36.000Z,9.40
2022-09-28T00:11:06.442Z,8.40
2022-09-28T00:13:35.167Z,8.30
2022-09-28T00:16:04.558Z,8.90
2022-09-28T00:18:32.276Z,9.20
2022-09-28T00:21:04.291Z,9.30
2022-09-28T00:23:32.421Z,8.40
2022-09-28T00:26:06.078Z,9.53
2022-09-28T00:28:33.411Z,9.20
2022-09-28T00:31:01.110Z,8.77
2022-09-28T00:33:28.940Z,7.20
2022-09-28T00:35:59.551Z,7.57
2022-09-28T00:38:28.913Z,8.60
2022-09-28T00:40:56.467Z,8.73
2022-09-28T00:43:24.712Z,8.20
2022-09-28T00:46:05.874Z,8.30
2022-09-28T00:48:39.502Z,10.03
2022-09-28T00:51:11.308Z,8.63
2022-09-28T00:53:42.786Z,9.73
2022-09-28T00:56:19.101Z,7.63
2022-09-28T00:58:50.193Z,9.67
2022-09-28T01:01:17.818Z,8.73
2022-09-28T01:03:48.621Z,7.70
2022-09-28T01:06:21.909Z,9.93
2022-09-28T01:08:52.617Z,9.00
2022-09-28T01:11:20.270Z,8.10
2022-09-28T01:13:51.390Z,8.50
2022-09-28T01:16:31.036Z,9.37
2022-09-28T01:19:22.526Z,8.33
2022-09-28T01:21:56.082Z,8.90
2022-09-28T01:24:26.359Z,8.90
2022-09-28T01:27:02.700Z,8.27
2022-09-28T01:29:44.614Z,9.13
2022-09-28T01:32:14.512Z,9.80
2022-09-28T01:34:58.237Z,9.17
2022-09-28T01:37:35.405Z,8.87
2022-09-28T01:40:04.551Z,10.47
2022-09-28T01:42:35.628Z,11.50
2022-09-28T01:45:15.812Z,9.00
2022-09-28T01:47:46.091Z,9.20
2022-09-28T01:50:18.587Z,10.23
2022-09-28T01:53:03.468Z,10.87
2022-09-28T01:55:50.295Z,11.67
2022-09-28T01:58:43.275Z,10.20
2022-09-28T02:01:25.182Z,11.00
2022-09-28T02:04:00.174Z,8.77
2022-09-28T02:06:38.990Z,10.80
2022-09-28T02:09:12.995Z,9.67
2022-09-28T02:11:50.494Z,9.67
2022-09-28T02:14:19.746Z,9.67
2022-09-28T02:16:54.276Z,9.10
2022-09-28T02:19:28.427Z,10.67
2022-09-28T02:22:15.715Z,13.50
2022-09-28T02:25:09.876Z,11.83
2022-09-28T02:27:57.560Z,16.30
2022-09-28T02:30:24.978Z,16.43
2022-09-28T02:32:57.967Z,16.40
2022-09-28T02:35:25.522Z,18.00
2022-09-28T02:37:55.083Z,18.73
2022-09-28T02:40:25.913Z,18.43
2022-09-28T02:42:59.193Z,23.10
2022-09-28T02:46:02.043Z,22.07
2022-09-28T02:49:20.293Z,24.80
2022-09-28T02:52:03.633Z,19.47
2022-09-28T02:54:43.533Z,21.13
2022-09-28T02:57:28.917Z,18.93
2022-09-28T03:00:12.102Z,17.77
2022-09-28T03:03:14.567Z,20.50
2022-09-28T03:06:19.600Z,20.37
2022-09-28T03:09:06.588Z,25.33
2022-09-28T03:11:46.455Z,21.60
2022-09-28T03:14:14.857Z,21.03
2022-09-28T03:16:51.469Z,23.60
2022-09-28T03:19:26.760Z,22.90
2022-09-28T03:21:55.615Z,23.70
2022-09-28T03:24:23.639Z,27.53
2022-09-28T03:26:51.465Z,23.33
2022-09-28T03:29:20.454Z,21.77
2022-09-28T03:31:52.766Z,20.57
2022-09-28T03:34:20.579Z,21.10
2022-09-28T03:36:48.033Z,21.43
2022-09-28T03:39:15.457Z,22.97
2022-09-28T03:41:42.798Z,24.20
2022-09-28T03:44:10.138Z,23.90
2022-09-28T03:46:38.497Z,23.00
2022-09-28T03:49:10.303Z,25.33
2022-09-28T03:51:37.625Z,23.70
2022-09-28T03:54:05.659Z,23.30
2022-09-28T03:56:33.081Z,20.27
2022-09-28T03:59:03.310Z,21.33
2022-09-28T04:01:30.896Z,23.83
2022-09-28T04:03:58.920Z,24.67
2022-09-28T04:06:26.502Z,25.37
2022-09-28T04:08:54.110Z,26.57
2022-09-28T04:11:21.387Z,29.00
2022-09-28T04:13:50.017Z,26.87
2022-09-28T04:16:18.536Z,25.30
2022-09-28T04:18:54.974Z,21.57
2022-09-28T04:21:51.019Z,23.17
2022-09-28T04:24:20.237Z,26.60
2022-09-28T04:26:47.953Z,21.50
2022-09-28T04:29:18.313Z,25.00
2022-09-28T04:31:54.302Z,23.30
2022-09-28T04:34:31.896Z,21.37
2022-09-28T04:37:01.950Z,21.90
2022-09-28T04:39:29.314Z,23.23
2022-09-28T04:41:57.411Z,23.80
2022-09-28T04:44:24.770Z,22.30
2022-09-28T04:47:00.659Z,20.73
2022-09-28T04:49:48.597Z,27.87
2022-09-28T04:52:23.365Z,22.87
2022-09-28T04:54:50.690Z,29.60
2022-09-28T04:57:18.599Z,21.43
2022-09-28T04:59:46.322Z,27.83
2022-09-28T05:02:15.111Z,27.13
2022-09-28T05:05:06.221Z,25.30
2022-09-28T05:07:49.313Z,32.07
2022-09-28T05:10:18.635Z,24.40
2022-09-28T05:12:46.193Z,22.90
2022-09-28T05:15:13.924Z,25.30
2022-09-28T05:17:41.910Z,26.27
2022-09-28T05:20:17.119Z,24.77
2022-09-28T05:22:45.214Z,26.77
2022-09-28T05:25:12.735Z,24.83
2022-09-28T05:27:57.421Z,25.90
2022-09-28T05:30:38.378Z,19.70
2022-09-28T05:33:24.146Z,23.57
2022-09-28T05:36:03.732Z,22.77
2022-09-28T05:38:31.526Z,24.57
2022-09-28T05:41:00.376Z,21.50
2022-09-28T05:43:32.120Z,22.57
2022-09-28T05:46:00.390Z,25.33
2022-09-28T05:48:28.412Z,22.00
2022-09-28T05:50:55.998Z,28.37
2022-09-28T05:53:23.727Z,33.03
2022-09-28T05:55:51.273Z,28.83
2022-09-28T05:58:19.089Z,26.47
2022-09-28T06:00:46.643Z,27.57
2022-09-28T06:03:14.691Z,29.97
2022-09-28T06:05:42.076Z,25.17
2022-09-28T06:08:13.116Z,27.77
2022-09-28T06:10:44.825Z,25.87
2022-09-28T06:13:12.262Z,34.03
2022-09-28T06:15:42.668Z,29.83
2022-09-28T06:18:16.592Z,32.23
2022-09-28T06:21:05.837Z,39.97
2022-09-28T06:23:36.708Z,38.37
2022-09-28T06:26:04.225Z,41.07
2022-09-28T06:28:31.602Z,31.23
2022-09-28T06:31:02.662Z,28.47
2022-09-28T06:33:31.411Z,34.93
2022-09-28T06:36:00.048Z,36.13
2022-09-28T06:38:28.110Z,29.40
2022-09-28T06:40:57.360Z,39.20
2022-09-28T06:43:25.935Z,34.07
2022-09-28T06:46:13.078Z,40.80
2022-09-28T06:48:40.625Z,32.20
2022-09-28T06:51:12.573Z,39.00
2022-09-28T06:53:53.766Z,31.20
2022-09-28T06:56:33.082Z,37.53
2022-09-28T06:59:00.652Z,35.37
2022-09-28T07:01:28.892Z,37.13
2022-09-28T07:04:07.114Z,29.10
2022-09-28T07:06:54.579Z,26.60
2022-09-28T07:09:49.412Z,27.60
2022-09-28T07:12:38.956Z,31.53
2022-09-28T07:15:22.938Z,29.57
2022-09-28T07:18:02.107Z,28.97
2022-09-28T07:20:35.644Z,31.60
2022-09-28T07:23:18.332Z,33.13
2022-09-28T07:26:08.774Z,24.10
2022-09-28T07:29:02.497Z,30.40
2022-09-28T07:31:48.475Z,22.93
2022-09-28T07:34:23.541Z,24.43
2022-09-28T07:37:01.648Z,29.27
2022-09-28T07:39:29.483Z,27.60
2022-09-28T07:42:02.650Z,21.60
2022-09-28T07:44:31.439Z,22.30
2022-09-28T07:46:58.977Z,24.27
2022-09-28T07:49:58.767Z,21.23
2022-09-28T07:52:39.371Z,20.00
2022-09-28T07:55:14.272Z,20.63
2022-09-28T07:58:05.132Z,20.50
2022-09-28T08:00:54.361Z,20.17
2022-09-28T08:03:22.571Z,18.90
2022-09-28T08:05:50.017Z,22.27
2022-09-28T08:08:18.492Z,17.47
2022-09-28T08:10:47.393Z,17.13
2022-09-28T08:13:33.861Z,18.07
2022-09-28T08:16:20.557Z,17.10
2022-09-28T08:19:09.692Z,20.57
2022-09-28T08:21:46.234Z,15.27
2022-09-28T08:24:16.633Z,18.77
2022-09-28T08:26:45.140Z,16.73
2022-09-28T08:29:16.098Z,17.80
2022-09-28T08:31:48.127Z,17.27
2022-09-28T08:34:38.617Z,15.73
2022-09-28T08:37:21.116Z,16.53
2022-09-28T08:40:20.151Z,16.23
2022-09-28T08:43:15.295Z,17.20
2022-09-28T08:46:01.261Z,15.20
2022-09-28T08:49:13.471Z,15.93
2022-09-28T08:52:11.809Z,15.03
2022-09-28T08:55:25.329Z,14.30
2022-09-28T08:57:55.849Z,13.63
2022-09-28T09:00:33.352Z,15.13
2022-09-28T09:03:12.266Z,14.73
2022-09-28T09:05:52.065Z,14.13
2022-09-28T09:08:57.336Z,15.23
2022-09-28T09:11:44.278Z,13.37
2022-09-28T09:14:32.714Z,13.20
2022-09-28T09:17:15.892Z,14.00
2022-09-28T09:20:24.669Z,12.37
2022-09-28T09:23:28.414Z,12.43
2022-09-28T09:26:03.610Z,12.70
2022-09-28T09:28:40.137Z,11.90
2022-09-28T09:31:37.164Z,11.97
2022-09-28T09:34:32.102Z,11.40
2022-09-28T09:37:47.898Z,11.70
2022-09-28T09:40:42.112Z,12.20
2022-09-28T09:44:11.652Z,11.07
2022-09-28T09:46:54.768Z,10.90
2022-09-28T09:50:08.433Z,10.37
2022-09-28T09:52:57.707Z,9.57
2022-09-28T09:55:31.059Z,10.70
2022-09-28T09:58:52.532Z,10.97
2022-09-28T10:01:43.545Z,9.67
2022-09-28T10:04:40.733Z,10.00
2022-09-28T10:07:45.845Z,8.77
2022-09-28T10:10:22.848Z,8.43
2022-09-28T10:12:53.813Z,8.60
2022-09-28T10:15:30.907Z,8.60
2022-09-28T10:18:13.863Z,9.00
2022-09-28T10:20:59.877Z,8.00
2022-09-28T10:23:37.768Z,8.30
2022-09-28T10:26:10.763Z,7.40
2022-09-28T10:28:48.577Z,7.23
2022-09-28T10:31:39.889Z,7.00
2022-09-28T10:34:14.837Z,6.87
2022-09-28T10:37:00.628Z,6.60
2022-09-28T10:39:37.559Z,7.10
2022-09-28T10:42:11.595Z,7.60
2022-09-28T10:44:59.073Z,6.37
2022-09-28T10:47:35.517Z,6.87
2022-09-28T10:50:21.347Z,6.17
2022-09-28T10:52:50.201Z,5.60
2022-09-28T10:55:37.830Z,5.07
2022-09-28T10:58:37.552Z,6.70
2022-09-28T11:01:10.913Z,6.33
2022-09-28T11:03:56.733Z,6.10
2022-09-28T11:06:28.725Z,4.83
2022-09-28T11:09:02.720Z,5.70
2022-09-28T11:11:32.409Z,5.30
2022-09-28T11:14:05.390Z,4.83
2022-09-28T11:16:37.854Z,4.23
2022-09-28T11:19:26.543Z,4.40
2022-09-28T11:21:54.879Z,4.53
2022-09-28T11:24:30.554Z,4.30
2022-09-28T11:27:01.644Z,4.70
2022-09-28T11:29:41.814Z,4.43
2022-09-28T11:32:23.656Z,4.53
2022-09-28T11:35:22.137Z,4.40
2022-09-28T11:38:14.881Z,3.60
2022-09-28T11:41:35.254Z,3.27
2022-09-28T11:44:29.438Z,3.20
2022-09-28T11:47:34.608Z,3.50
2022-09-28T11:50:24.177Z,3.40
2022-09-28T11:53:15.579Z,3.33
2022-09-28T11:56:08.728Z,4.03
2022-09-28T11:58:52.510Z,3.27
2022-09-28T12:02:01.115Z,4.30
2022-09-28T12:04:52.666Z,4.17
2022-09-28T12:07:32.800Z,5.97
2022-09-28T12:10:45.396Z,5.33
2022-09-28T12:13:19.533Z,5.40
2022-09-28T12:16:17.438Z,5.67
2022-09-28T12:19:27.256Z,5.00
2022-09-28T12:21:59.627Z,4.90
2022-09-28T12:24:37.373Z,4.53
2022-09-28T12:27:14.569Z,4.23
2022-09-28T12:29:57.043Z,4.17
2022-09-28T12:32:47.620Z,3.80
2022-09-28T12:35:40.650Z,4.40
2022-09-28T12:38:26.226Z,4.20
2022-09-28T12:40:57.385Z,4.40
2022-09-28T12:43:33.413Z,4.37
2022-09-28T12:46:30.278Z,4.83
2022-09-28T12:52:27.631Z,4.43
2022-09-28T12:55:26.037Z,4.07
2022-09-28T12:57:59.798Z,3.80
2022-09-28T13:00:37.611Z,4.50
2022-09-28T13:03:10.665Z,4.33
2022-09-28T13:06:05.343Z,4.23
2022-09-28T13:08:50.329Z,4.57
2022-09-28T13:11:26.801Z,4.37
2022-09-28T13:14:06.502Z,4.50
2022-09-28T13:17:00.394Z,4.90
2022-09-28T13:19:44.554Z,5.10
2022-09-28T13:22:46.897Z,4.67
2022-09-28T13:25:17.839Z,4.73
2022-09-28T13:27:53.804Z,5.40
2022-09-28T13:30:21.410Z,6.37
2022-09-28T13:32:50.049Z,5.90
2022-09-28T13:35:21.626Z,6.40
2022-09-28T13:38:14.582Z,6.20
2022-09-28T13:41:03.913Z,6.20
2022-09-28T13:43:42.899Z,5.83
2022-09-28T13:46:33.474Z,5.80
2022-09-28T13:49:21.738Z,4.50
2022-09-28T13:52:05.590Z,4.40
2022-09-28T13:55:14.300Z,4.40
2022-09-28T13:57:56.773Z,4.37
2022-09-28T14:00:32.104Z,4.47
2022-09-28T14:03:20.573Z,4.33
2022-09-28T14:06:03.320Z,4.90
2022-09-28T14:08:40.073Z,4.70
2022-09-28T14:11:34.354Z,4.80
2022-09-28T14:14:07.938Z,4.50
2022-09-28T14:16:36.934Z,4.43
2022-09-28T14:19:14.197Z,4.40
2022-09-28T14:21:58.040Z,4.20
2022-09-28T14:24:57.501Z,4.40
2022-09-28T14:27:37.711Z,4.30
2022-09-28T14:30:11.130Z,4.00
2022-09-28T14:32:41.029Z,4.07
2022-09-28T14:35:27.880Z,4.63
2022-09-28T14:38:34.815Z,4.93
2022-09-28T14:41:10.221Z,5.33
2022-09-28T14:43:57.552Z,4.73
2022-09-28T14:46:25.516Z,4.83
2022-09-28T14:49:19.447Z,5.43
2022-09-28T14:51:56.034Z,5.17
2022-09-28T14:54:27.007Z,5.40
2022-09-28T14:56:57.020Z,5.60
2022-09-28T14:59:26.046Z,5.87
2022-09-28T15:02:08.123Z,4.90
2022-09-28T15:04:43.244Z,5.60
2022-09-28T15:07:19.312Z,6.57
2022-09-28T15:09:52.403Z,5.70
2022-09-28T15:12:24.976Z,5.70
2022-09-28T15:14:58.292Z,6.10
2022-09-28T15:17:36.986Z,5.93
2022-09-28T15:20:20.945Z,5.67
2022-09-28T15:22:50.812Z,5.80
2022-09-28T15:25:21.850Z,5.53
2022-09-28T15:27:57.931Z,5.77
2022-09-28T15:30:36.398Z,6.13
2022-09-28T15:33:23.902Z,6.17
2022-09-28T15:36:05.457Z,5.83
2022-09-28T15:38:34.751Z,6.40
2022-09-28T15:41:07.303Z,5.30
2022-09-28T15:43:37.594Z,5.73
2022-09-28T15:46:21.787Z,5.60
2022-09-28T15:48:54.324Z,6.00
2022-09-28T15:51:25.907Z,5.33
2022-09-28T15:54:19.544Z,4.70
2022-09-28T15:57:05.516Z,4.83
2022-09-28T15:59:40.622Z,4.83
2022-09-28T16:02:17.226Z,4.60
2022-09-28T16:04:55.130Z,4.77
2022-09-28T16:07:40.902Z,4.00
2022-09-28T16:10:14.372Z,3.73
2022-09-28T16:12:48.055Z,4.40
2022-09-28T16:15:39.710Z,4.27
2022-09-28T16:18:12.915Z,4.33
2022-09-28T16:20:42.438Z,4.10
2022-09-28T16:23:20.049Z,3.80
2022-09-28T16:26:00.400Z,5.03
2022-09-28T16:28:52.015Z,5.20
2022-09-28T16:31:19.552Z,4.83
2022-09-28T16:33:58.904Z,5.10
2022-09-28T16:36:31.914Z,5.80
2022-09-28T16:39:00.066Z,7.20
2022-09-28T16:41:28.930Z,7.70
2022-09-28T16:44:02.115Z,7.80
2022-09-28T16:46:39.227Z,8.23
2022-09-28T16:49:07.130Z,9.63
2022-09-28T16:51:34.644Z,10.10
2022-09-28T16:54:41.633Z,9.87
2022-09-28T16:57:13.470Z,11.70
2022-09-28T16:59:41.475Z,11.50
2022-09-28T17:02:42.163Z,12.20
2022-09-28T17:05:07.130Z,10.63
2022-09-28T17:07:34.961Z,11.50
2022-09-28T17:10:02.921Z,12.53
2022-09-28T17:12:31.325Z,12.30
2022-09-28T17:15:00.020Z,11.73
2022-09-28T17:17:29.833Z,11.67
2022-09-28T17:19:57.341Z,12.23
2022-09-28T17:22:24.898Z,14.00
2022-09-28T17:24:52.225Z,14.07
2022-09-28T17:27:20.964Z,14.00
2022-09-28T17:29:48.829Z,15.50
2022-09-28T17:32:19.351Z,14.43
2022-09-28T17:34:55.882Z,14.90
2022-09-28T17:37:36.155Z,15.60
2022-09-28T17:40:25.726Z,15.07
2022-09-28T17:42:55.126Z,15.43
2022-09-28T17:45:28.371Z,16.47
2022-09-28T17:47:55.853Z,15.50
2022-09-28T17:50:26.875Z,16.53
2022-09-28T17:52:54.539Z,16.40
2022-09-28T17:55:24.198Z,16.40
2022-09-28T17:57:51.677Z,15.10
2022-09-28T18:00:19.525Z,16.50
2022-09-28T18:02:47.004Z,16.77
2022-09-28T18:05:14.840Z,18.07
2022-09-28T18:07:47.301Z,15.73
2022-09-28T18:10:19.530Z,16.60
2022-09-28T18:12:47.519Z,17.00
2022-09-28T18:15:16.229Z,17.67
2022-09-28T18:17:43.879Z,15.90
2022-09-28T18:20:13.523Z,16.90
2022-09-28T18:22:41.177Z,18.43
2022-09-28T18:25:08.689Z,17.00
2022-09-28T18:27:36.076Z,16.60
2022-09-28T18:30:04.869Z,17.23
2022-09-28T18:32:36.768Z,18.60
2022-09-28T18:35:06.017Z,18.73
2022-09-28T18:37:39.782Z,17.10
2022-09-28T18:40:10.154Z,19.53
2022-09-28T18:42:37.593Z,18.70
2022-09-28T18:45:07.153Z,17.97
2022-09-28T18:47:34.887Z,19.33
2022-09-28T18:50:02.588Z,19.13
2022-09-28T18:52:30.841Z,18.50
2022-09-28T18:54:58.277Z,19.60
2022-09-28T18:57:26.914Z,17.37
2022-09-28T18:59:54.636Z,19.70
2022-09-28T19:02:22.197Z,19.63
2022-09-28T19:04:49.644Z,19.60
2022-09-28T19:07:17.729Z,20.67
2022-09-28T19:09:45.850Z,21.40
2022-09-28T19:12:13.965Z,21.47
2022-09-28T19:14:41.355Z,18.20
2022-09-28T19:17:10.094Z,20.20
2022-09-28T19:19:37.862Z,19.27
2022-09-28T19:22:06.497Z,21.50
2022-09-28T19:24:34.891Z,20.83
2022-09-28T19:27:02.257Z,22.93
2022-09-28T19:29:29.874Z,20.20
2022-09-28T19:31:57.972Z,21.70
2022-09-28T19:34:27.630Z,20.40
2022-09-28T19:36:55.711Z,19.03
2022-09-28T19:39:23.110Z,21.43
2022-09-28T19:41:53.486Z,19.90
2022-09-28T19:44:26.924Z,18.90
2022-09-28T19:47:11.582Z,21.70
2022-09-28T19:49:41.489Z,19.23
2022-09-28T19:52:16.124Z,19.50
2022-09-28T19:54:56.764Z,18.67
2022-09-28T19:57:27.701Z,18.03
2022-09-28T20:00:00.915Z,16.83
2022-09-28T20:02:34.057Z,18.93
2022-09-28T20:05:01.541Z,17.63
2022-09-28T20:07:32.750Z,17.93
2022-09-28T20:10:01.020Z,18.27
2022-09-28T20:12:28.472Z,18.07
2022-09-28T20:14:56.128Z,18.23
2022-09-28T20:17:23.847Z,18.40
2022-09-28T20:19:52.227Z,20.73
2022-09-28T20:22:20.657Z,19.20
2022-09-28T20:24:48.084Z,18.70
2022-09-28T20:27:15.458Z,18.43
2022-09-28T20:29:43.092Z,16.10
2022-09-28T20:32:11.651Z,18.90
2022-09-28T20:34:39.084Z,17.83
2022-09-28T20:37:06.528Z,19.43
2022-09-28T20:39:34.450Z,17.23
2022-09-28T20:42:02.969Z,17.13
2022-09-28T20:44:31.212Z,18.00
2022-09-28T20:46:58.772Z,17.20
2022-09-28T20:49:27.965Z,17.80
2022-09-28T20:51:55.631Z,16.50
2022-09-28T20:54:23.559Z,18.40
2022-09-28T20:56:50.934Z,17.23
2022-09-28T20:59:18.421Z,16.40
2022-09-28T21:01:45.890Z,15.57
2022-09-28T21:04:13.353Z,18.53
2022-09-28T21:06:42.251Z,16.47
2022-09-28T21:09:11.642Z,16.80
2022-09-28T21:11:40.205Z,15.10
2022-09-28T21:14:10.246Z,15.70
2022-09-28T21:16:38.782Z,16.60
2022-09-28T21:19:06.716Z,16.70
2022-09-28T21:21:35.479Z,15.87
2022-09-28T21:24:03.293Z,17.10
2022-09-28T21:26:35.403Z,17.20
2022-09-28T21:29:10.444Z,16.13
2022-09-28T21:31:40.650Z,17.20
2022-09-28T21:34:21.178Z,15.37
2022-09-28T21:36:51.229Z,13.60
2022-09-28T21:39:20.271Z,13.10
2022-09-28T21:41:51.328Z,14.30
2022-09-28T21:44:19.853Z,13.83
2022-09-28T21:46:47.368Z,13.93
2022-09-28T21:49:14.809Z,14.60
2022-09-28T21:51:42.174Z,15.33
2022-09-28T21:54:10.086Z,14.80
2022-09-28T21:56:37.668Z,15.30
2022-09-28T21:59:06.175Z,15.27
2022-09-28T22:01:33.594Z,14.90
2022-09-28T22:04:01.210Z,12.87
2022-09-28T22:06:28.644Z,13.80
2022-09-28T22:08:57.391Z,13.97
2022-09-28T22:11:27.686Z,14.03
2022-09-28T22:13:59.152Z,13.50
2022-09-28T22:16:31.180Z,15.30
2022-09-28T22:18:59.545Z,13.90
2022-09-28T22:21:29.798Z,14.73
2022-09-28T22:24:05.600Z,14.07
2022-09-28T22:26:36.197Z,14.07
2022-09-28T22:29:12.640Z,13.40
2022-09-28T22:31:41.341Z,14.70
2022-09-28T22:34:09.531Z,13.47
2022-09-28T22:36:37.569Z,12.83
2022-09-28T22:39:05.354Z,14.83
2022-09-28T22:41:33.132Z,13.43
2022-09-28T22:44:01.318Z,13.20
2022-09-28T22:46:33.623Z,14.70
2022-09-28T22:49:01.726Z,14.43
2022-09-28T22:51:30.112Z,14.70
2022-09-28T22:53:57.750Z,13.83
2022-09-28T22:56:26.114Z,13.20
2022-09-28T22:58:53.756Z,14.03
2022-09-28T23:01:26.880Z,12.83
2022-09-28T23:03:55.883Z,12.90
2022-09-28T23:06:26.235Z,13.70
2022-09-28T23:08:53.778Z,12.80
2022-09-28T23:11:21.869Z,13.80
2022-09-28T23:13:53.119Z,13.70
2022-09-28T23:16:23.613Z,14.27
2022-09-28T23:18:52.399Z,12.70
2022-09-28T23:21:22.611Z,14.13
2022-09-28T23:23:55.629Z,13.93
2022-09-28T23:26:32.050Z,13.70
2022-09-28T23:29:00.569Z,12.47
2022-09-28T23:31:32.305Z,12.83
2022-09-28T23:34:01.903Z,13.40
2022-09-28T23:36:31.075Z,12.67
2022-09-28T23:38:59.717Z,12.17
2022-09-28T23:41:27.124Z,13.47
2022-09-28T23:43:54.773Z,14.00
2022-09-28T23:46:26.835Z,13.03
2022-09-28T23:48:54.494Z,13.63
2022-09-28T23:51:23.358Z,13.73
2022-09-28T23:53:50.988Z,14.07
2022-09-28T23:56:19.060Z,12.70
2022-09-28T23:58:47.162Z,14.77
